createdAt,value
2016-04-13T06:28:06.537Z,714.27
2016-04-13T06:28:19.677Z,714.38
2016-04-13T06:28:33.802Z,714.31
2016-04-13T06:28:47.820Z,714.32
2016-04-13T06:29:01.585Z,714.48
2016-04-13T06:29:15.851Z,714.41
2016-04-13T06:29:33.101Z,714.44
2016-04-13T06:29:47.229Z,714.36
2016-04-13T06:30:01.338Z,714.4
2016-04-13T06:30:29.651Z,714.5
2016-04-13T06:30:43.857Z,714.37
2016-04-13T06:30:57.810Z,714.33
2016-04-13T06:31:11.638Z,714.33
2016-04-13T06:31:25.748Z,714.37
2016-04-13T06:31:39.843Z,714.32
2016-04-13T06:31:54.250Z,714.24
2016-04-13T06:32:08.312Z,714.36
2016-04-13T06:32:22.343Z,714.18
2016-04-13T06:32:39.378Z,714.28
2016-04-13T06:32:53.987Z,714.32
2016-04-13T06:33:11.065Z,714.23
2016-04-13T06:33:25.096Z,714.38
2016-04-13T06:34:07.942Z,714.35
2016-04-13T06:34:22.333Z,714.35
2016-04-13T06:34:50.742Z,714.35
2016-04-13T06:35:05.555Z,714.35
2016-04-13T06:35:19.601Z,714.52
2016-04-13T06:35:47.292Z,714.33
2016-04-13T06:36:01.308Z,714.31
2016-04-13T06:36:15.620Z,714.38
2016-04-13T06:36:30.183Z,714.4
2016-04-13T06:36:44.278Z,714.39
2016-04-13T06:36:58.497Z,714.4
2016-04-13T06:37:12.825Z,714.37
2016-04-13T06:37:27.528Z,714.35
2016-04-13T06:37:41.735Z,714.22
2016-04-13T06:37:56.235Z,714.34
2016-04-13T06:38:10.517Z,714.46
2016-04-13T06:38:24.767Z,714.47
2016-04-13T06:38:39.081Z,714.24
2016-04-13T06:38:53.581Z,714.27
2016-04-13T06:39:21.487Z,714.27
2016-04-13T06:39:35.880Z,714.35
2016-04-13T06:39:49.849Z,714.26
2016-04-13T06:40:03.708Z,714.26
2016-04-13T06:40:17.724Z,714.23
2016-04-13T06:40:31.568Z,714.31
2016-04-13T06:40:45.759Z,714.31
2016-04-13T06:41:03.165Z,714.27
2016-04-13T06:41:17.165Z,714.25
2016-04-13T06:41:31.275Z,714.14
2016-04-13T06:41:44.636Z,714.49
2016-04-13T06:41:58.730Z,714.43
2016-04-13T06:42:12.745Z,714.45
2016-04-13T06:42:26.714Z,714.29
2016-04-13T06:42:41.186Z,714.36
2016-04-13T06:42:55.498Z,714.35
2016-04-13T06:43:09.717Z,714.29
2016-04-13T06:43:23.733Z,714.24
2016-04-13T06:43:37.766Z,714.38
2016-04-13T06:43:52.110Z,714.37
2016-04-13T06:44:06.079Z,714.32
2016-04-13T06:44:20.547Z,714.25
2016-04-13T06:44:34.594Z,714.31
2016-04-13T06:44:48.613Z,714.32
2016-04-13T06:45:02.957Z,714.46
2016-04-13T06:45:17.269Z,714.34
2016-04-13T06:45:31.207Z,714.3
2016-04-13T06:45:45.678Z,714.4
2016-04-13T06:46:00.397Z,714.32
2016-04-13T06:46:14.835Z,714.4
2016-04-13T06:46:29.194Z,714.43
2016-04-13T06:46:43.228Z,714.54
2016-04-13T06:46:57.369Z,714.33
2016-04-13T06:47:12.259Z,714.32
2016-04-13T06:47:26.275Z,714.26
2016-04-13T06:47:40.168Z,714.17
2016-04-13T06:47:54.215Z,714.5
2016-04-13T06:48:36.639Z,714.12
2016-04-13T06:48:50.702Z,714.34
2016-04-13T06:49:04.843Z,714.39
2016-04-13T06:49:19.124Z,714.46
2016-04-13T06:49:33.702Z,714.32
2016-04-13T06:49:47.891Z,714.14
2016-04-13T06:50:02.876Z,714.21
2016-04-13T06:50:18.532Z,714.21
2016-04-13T06:50:32.954Z,714.28
2016-04-13T06:50:49.349Z,714.47
2016-04-13T06:51:03.364Z,714.29
2016-04-13T06:51:17.489Z,714.29
2016-04-13T06:51:31.614Z,714.43
2016-04-13T06:51:59.897Z,714.44
2016-04-13T06:52:14.163Z,714.39
2016-04-13T06:52:31.319Z,714.17
2016-04-13T06:52:45.947Z,714.26
2016-04-13T06:53:00.229Z,714.36
2016-04-13T06:53:14.213Z,714.24
2016-04-13T06:53:28.416Z,714.37
2016-04-13T06:53:42.871Z,714.43
2016-04-13T06:53:57.418Z,714.28
2016-04-13T06:54:14.496Z,714.3
2016-04-13T06:54:28.762Z,714.27
2016-04-13T06:54:43.062Z,714.24
2016-04-13T06:54:57.202Z,714.28
2016-04-13T06:55:11.609Z,714.21
2016-04-13T06:55:25.718Z,714.26
2016-04-13T06:55:39.877Z,714.25
2016-04-13T06:55:54.065Z,714.44
2016-04-13T06:56:08.299Z,714.47
2016-04-13T06:56:22.705Z,714.27
2016-04-13T06:56:36.974Z,714.37
2016-04-13T06:56:51.411Z,714.43
2016-04-13T06:57:05.490Z,714.39
2016-04-13T06:57:22.802Z,714.42
2016-04-13T06:57:37.007Z,714.34
2016-04-13T06:57:51.460Z,714.36
2016-04-13T06:58:05.710Z,714.35
2016-04-13T06:58:19.851Z,714.31
2016-04-13T06:58:33.976Z,714.3
2016-04-13T06:58:48.229Z,714.25
2016-04-13T06:59:02.823Z,714.42
2016-04-13T06:59:17.448Z,714.27
2016-04-13T06:59:32.213Z,714.32
2016-04-13T06:59:46.857Z,714.47
2016-04-13T07:00:01.419Z,714.41
2016-04-13T07:00:15.826Z,714.45
2016-04-13T07:00:29.623Z,714.2
2016-04-13T07:00:43.796Z,714.31
2016-04-13T07:00:58.125Z,714.26
2016-04-13T07:01:12.234Z,714.08
2016-04-13T07:01:26.359Z,714.2
2016-04-13T07:01:40.581Z,714.32
2016-04-13T07:01:54.112Z,714.4
2016-04-13T07:02:08.409Z,714.34
2016-04-13T07:02:22.706Z,714.34
2016-04-13T07:02:37.021Z,714.36
2016-04-13T07:02:51.537Z,714.32
2016-04-13T07:03:05.849Z,714.27
2016-04-13T07:03:20.224Z,714.34
2016-04-13T07:03:34.537Z,714.36
2016-04-13T07:03:48.773Z,714.36
2016-04-13T07:04:03.133Z,714.3
2016-04-13T07:04:17.461Z,714.35
2016-04-13T07:04:31.867Z,714.39
2016-04-13T07:04:46.214Z,714.23
2016-04-13T07:05:29.370Z,714.59
2016-04-13T07:05:57.810Z,714.36
2016-04-13T07:06:25.935Z,714.41
2016-04-13T07:06:43.078Z,714.27
2016-04-13T07:06:56.891Z,714.33
2016-04-13T07:07:11.250Z,714.33
2016-04-13T07:07:39.331Z,714.34
2016-04-13T07:08:07.831Z,714.29
2016-04-13T07:08:22.019Z,714.28
2016-04-13T07:08:36.442Z,714.23
2016-04-13T07:08:50.817Z,714.46
2016-04-13T07:09:04.942Z,714.3
2016-04-13T07:09:19.021Z,714.28
2016-04-13T07:09:33.427Z,714.25
2016-04-13T07:09:53.742Z,714.53
2016-04-13T07:10:08.149Z,714.32
2016-04-13T07:10:22.227Z,714.69
2016-04-13T07:10:39.308Z,714.45
2016-04-13T07:10:53.480Z,714.51
2016-04-13T07:11:07.448Z,714.36
2016-04-13T07:11:22.198Z,714.28
2016-04-13T07:11:36.419Z,714.27
2016-04-13T07:11:50.700Z,714.32
2016-04-13T07:12:04.857Z,714.31
2016-04-13T07:12:21.029Z,714.42
2016-04-13T07:12:35.013Z,714.27
2016-04-13T07:12:49.219Z,714.31
2016-04-13T07:13:03.344Z,714.23
2016-04-13T07:13:17.750Z,714.42
2016-04-13T07:13:31.985Z,714.41
2016-04-13T07:13:46.097Z,714.32
2016-04-13T07:14:00.347Z,714.31
2016-04-13T07:14:14.488Z,714.26
2016-04-13T07:14:29.019Z,714.33
2016-04-13T07:14:43.366Z,714.2
2016-04-13T07:14:57.694Z,714.24
2016-04-13T07:15:12.522Z,714.22
2016-04-13T07:15:26.975Z,714.32
2016-04-13T07:15:41.103Z,714.28
2016-04-13T07:15:55.041Z,714.43
2016-04-13T07:16:09.166Z,714.31
2016-04-13T07:16:23.650Z,714.3
2016-04-13T07:16:38.043Z,714.41
2016-04-13T07:16:53.121Z,714.46
2016-04-13T07:17:07.199Z,714.28
2016-04-13T07:17:21.324Z,714.31
2016-04-13T07:17:35.246Z,714.32
2016-04-13T07:17:49.155Z,714.51
2016-04-13T07:18:03.139Z,714.39
2016-04-13T07:18:17.452Z,714.28
2016-04-13T07:18:32.311Z,714.3
2016-04-13T07:18:46.611Z,714.34
2016-04-13T07:19:00.845Z,714.25
2016-04-13T07:19:46.754Z,714.23
2016-04-13T07:20:01.176Z,714.37
2016-04-13T07:20:18.504Z,714.34
2016-04-13T07:20:32.691Z,714.28
2016-04-13T07:20:47.101Z,714.13
2016-04-13T07:21:01.273Z,714
2016-04-13T07:21:14.508Z,714.26
2016-04-13T07:21:29.180Z,714.12
2016-04-13T07:21:43.338Z,714.36
2016-04-13T07:22:00.853Z,714.41
2016-04-13T07:22:16.197Z,714.37
2016-04-13T07:22:30.635Z,714.3
2016-04-13T07:22:44.888Z,714.22
2016-04-13T07:23:27.091Z,714.12
2016-04-13T07:23:41.203Z,714.28
2016-04-13T07:23:55.719Z,714.23
2016-04-13T07:24:09.109Z,714.3
2016-04-13T07:24:23.328Z,714.24
2016-04-13T07:24:37.346Z,714.2
2016-04-13T07:24:51.486Z,714.2
2016-04-13T07:25:05.986Z,714.38
2016-04-13T07:25:20.143Z,714.17
2016-04-13T07:25:33.486Z,714.12
2016-04-13T07:25:47.661Z,714.21
2016-04-13T07:26:01.708Z,714.19
2016-04-13T07:26:15.786Z,714.16
2016-04-13T07:26:30.318Z,714.32
2016-04-13T07:26:44.882Z,714.25
2016-04-13T07:26:59.070Z,714.26
2016-04-13T07:27:27.288Z,714.11
2016-04-13T07:27:41.807Z,714.09
2016-04-13T07:27:55.948Z,714.19
2016-04-13T07:28:10.276Z,714.23
2016-04-13T07:28:24.401Z,714.17
2016-04-13T07:28:38.482Z,714.12
2016-04-13T07:28:52.763Z,714.17
2016-04-13T07:29:06.716Z,714.21
2016-04-13T07:29:21.029Z,714.06
2016-04-13T07:29:35.185Z,714.14
2016-04-13T07:29:49.953Z,714.13
2016-04-13T07:30:03.062Z,714.18
2016-04-13T07:30:20.359Z,714.26
2016-04-13T07:30:37.799Z,714.24
2016-04-13T07:30:52.331Z,714.12
2016-04-13T07:31:13.268Z,714.26
2016-04-13T07:31:28.049Z,714.31
2016-04-13T07:31:42.442Z,714.15
2016-04-13T07:31:56.442Z,714.18
2016-04-13T07:32:11.083Z,714.01
2016-04-13T07:32:26.036Z,714.24
2016-04-13T07:32:40.351Z,714.13
2016-04-13T07:32:54.382Z,714.28
2016-04-13T07:33:08.554Z,714.27
2016-04-13T07:33:22.476Z,714.26
2016-04-13T07:33:36.760Z,714.2
2016-04-13T07:33:51.135Z,714.19
2016-04-13T07:34:05.760Z,713.97
2016-04-13T07:34:19.854Z,714.04
2016-04-13T07:34:34.104Z,714.18
2016-04-13T07:34:48.591Z,714.25
2016-04-13T07:35:05.809Z,714.51
2016-04-13T07:35:20.934Z,714.39
2016-04-13T07:35:35.091Z,714.36
2016-04-13T07:35:49.110Z,714.46
2016-04-13T07:36:03.220Z,714.28
2016-04-13T07:36:17.516Z,714.27
2016-04-13T07:36:31.595Z,714.28
2016-04-13T07:36:45.972Z,714.01
2016-04-13T07:37:00.128Z,713.98
2016-04-13T07:37:14.628Z,714.16
2016-04-13T07:37:29.331Z,714.19
2016-04-13T07:37:42.490Z,714.26
2016-04-13T07:37:56.146Z,714.16
2016-04-13T07:38:10.865Z,714.07
2016-04-13T07:38:25.287Z,714
2016-04-13T07:38:40.353Z,714.04
2016-04-13T07:39:00.696Z,714.23
2016-04-13T07:39:15.353Z,714.27
2016-04-13T07:39:43.917Z,714.17
2016-04-13T07:39:58.417Z,714.38
2016-04-13T07:40:12.605Z,714.22
2016-04-13T07:40:27.026Z,714.2
2016-04-13T07:40:41.389Z,714.22
2016-04-13T07:40:55.404Z,714.16
2016-04-13T07:41:09.561Z,714.15
2016-04-13T07:41:24.404Z,714.14
2016-04-13T07:41:38.407Z,714.34
2016-04-13T07:41:52.798Z,714.21
2016-04-13T07:42:06.954Z,714.15
2016-04-13T07:42:21.095Z,714.16
2016-04-13T07:42:35.220Z,714.26
2016-04-13T07:42:49.597Z,714.21
2016-04-13T07:43:03.675Z,714.22
2016-04-13T07:43:17.941Z,714.26
2016-04-13T07:43:35.347Z,714.31
2016-04-13T07:43:49.662Z,714.31
2016-04-13T07:44:04.006Z,714.25
2016-04-13T07:44:17.616Z,714.19
2016-04-13T07:44:32.397Z,714.25
2016-04-13T07:44:46.383Z,714.17
2016-04-13T07:45:00.696Z,714.27
2016-04-13T07:45:14.868Z,714.19
2016-04-13T07:45:28.993Z,714.14
2016-04-13T07:45:49.042Z,714.2
2016-04-13T07:46:03.136Z,714.21
2016-04-13T07:46:17.167Z,714.24
2016-04-13T07:46:31.308Z,714.19
2016-04-13T07:46:45.561Z,714.05
2016-04-13T07:47:03.577Z,714.2
2016-04-13T07:47:17.577Z,714.14
2016-04-13T07:47:31.717Z,714.25
2016-04-13T07:47:48.751Z,714.28
2016-04-13T07:48:17.219Z,714.29
2016-04-13T07:48:32.063Z,714.08
2016-04-13T07:48:46.394Z,714.15
2016-04-13T07:49:00.472Z,714.22
2016-04-13T07:49:14.613Z,714.13
2016-04-13T07:49:29.769Z,713.95
2016-04-13T07:49:44.178Z,714.23
2016-04-13T07:49:58.460Z,714.34
2016-04-13T07:50:12.538Z,714.27
2016-04-13T07:50:28.194Z,714.26
2016-04-13T07:50:42.853Z,714.22
2016-04-13T07:50:57.244Z,714.25
2016-04-13T07:51:11.416Z,714.32
2016-04-13T07:51:25.556Z,714.26
2016-04-13T07:51:39.888Z,714.29
2016-04-13T07:51:53.950Z,714.38
2016-04-13T07:52:08.528Z,714.28
2016-04-13T07:52:23.247Z,714.2
2016-04-13T07:52:40.608Z,714.26
2016-04-13T07:52:55.233Z,714.26
2016-04-13T07:53:09.843Z,714.27
2016-04-13T07:53:24.202Z,714.16
2016-04-13T07:53:38.393Z,714.38
2016-04-13T07:53:52.533Z,714.21
2016-04-13T07:54:06.689Z,714.17
2016-04-13T07:54:20.783Z,714.22
2016-04-13T07:54:34.705Z,714.22
2016-04-13T07:54:48.957Z,714.25
2016-04-13T07:55:03.145Z,714.12
2016-04-13T07:55:16.504Z,714.19
2016-04-13T07:55:30.691Z,714.25
2016-04-13T07:55:45.694Z,714.2
2016-04-13T07:56:03.038Z,714.17
2016-04-13T07:56:17.382Z,714.14
2016-04-13T07:56:31.491Z,714.12
2016-04-13T07:56:59.979Z,714.16
2016-04-13T07:57:13.854Z,714.34
2016-04-13T07:57:27.963Z,714.27
2016-04-13T07:57:42.559Z,714.17
2016-04-13T07:57:56.996Z,714.18
2016-04-13T07:58:12.590Z,714.28
2016-04-13T07:58:26.715Z,714.32
2016-04-13T07:58:40.719Z,714.28
2016-04-13T07:59:08.907Z,714.35
2016-04-13T07:59:26.125Z,714.38
2016-04-13T07:59:40.612Z,714.22
2016-04-13T07:59:54.643Z,714.19
2016-04-13T08:00:08.627Z,714.14
2016-04-13T08:00:22.893Z,714.29
2016-04-13T08:00:36.693Z,714.33
2016-04-13T08:00:54.052Z,714.44
2016-04-13T08:01:08.177Z,714.21
2016-04-13T08:01:25.349Z,714.27
2016-04-13T08:01:39.618Z,714.3
2016-04-13T08:01:53.743Z,714.28
2016-04-13T08:02:07.852Z,714.4
2016-04-13T08:02:50.448Z,714.49
2016-04-13T08:03:18.588Z,714.19
2016-04-13T08:03:32.838Z,714.28
2016-04-13T08:03:46.951Z,714.42
2016-04-13T08:04:15.248Z,714.3
2016-04-13T08:04:32.466Z,714.29
2016-04-13T08:04:46.718Z,714.27
2016-04-13T08:05:00.875Z,714.34
2016-04-13T08:05:14.937Z,714.27
2016-04-13T08:05:57.050Z,714.43
2016-04-13T08:06:11.175Z,714.27
2016-04-13T08:06:25.409Z,714.41
2016-04-13T08:06:39.865Z,714.34
2016-04-13T08:06:53.131Z,714.4
2016-04-13T08:07:35.443Z,714.32
2016-04-13T08:07:49.726Z,714.32
2016-04-13T08:08:03.680Z,714.31
2016-04-13T08:08:18.247Z,714.35
2016-04-13T08:08:32.747Z,714.34
2016-04-13T08:08:46.531Z,714.31
2016-04-13T08:09:00.375Z,714.21
2016-04-13T08:09:14.828Z,714.16
2016-04-13T08:09:30.000Z,714.24
2016-04-13T08:09:58.252Z,714.11
2016-04-13T08:10:12.408Z,714.19
2016-04-13T08:10:26.455Z,714.15
2016-04-13T08:10:40.489Z,714.39
2016-04-13T08:10:54.614Z,714.27
2016-04-13T08:11:22.724Z,714.29
2016-04-13T08:11:36.836Z,714.35
2016-04-13T08:11:50.789Z,714.2
2016-04-13T08:12:04.992Z,714.38
2016-04-13T08:12:22.102Z,714.25
2016-04-13T08:12:36.352Z,714.45
2016-04-13T08:13:21.494Z,714.28
2016-04-13T08:13:35.182Z,714.41
2016-04-13T08:13:49.983Z,714.24
2016-04-13T08:14:05.139Z,714.3
2016-04-13T08:14:19.373Z,714.37
2016-04-13T08:15:01.922Z,714.44
2016-04-13T08:15:16.047Z,714.34
2016-04-13T08:15:30.516Z,714.37
2016-04-13T08:15:58.613Z,714.25
2016-04-13T08:16:12.706Z,714.28
2016-04-13T08:16:26.691Z,714.29
2016-04-13T08:16:43.772Z,714.34
2016-04-13T08:16:57.006Z,714.36
2016-04-13T08:17:11.194Z,714.27
2016-04-13T08:17:53.821Z,714.3
2016-04-13T08:18:08.243Z,714.3
2016-04-13T08:18:22.430Z,714.3
2016-04-13T08:18:36.586Z,714.34
2016-04-13T08:18:51.293Z,714.3
2016-04-13T08:19:05.324Z,714.27
2016-04-13T08:19:19.527Z,714.42
2016-04-13T08:19:33.511Z,714.31
2016-04-13T08:19:48.233Z,714.38
2016-04-13T08:20:02.514Z,714.38
2016-04-13T08:20:16.592Z,714.37
2016-04-13T08:20:31.030Z,714.27
2016-04-13T08:20:45.079Z,714.36
2016-04-13T08:20:59.423Z,714.39
2016-04-13T08:21:13.360Z,714.33
2016-04-13T08:21:27.923Z,714.36
2016-04-13T08:21:42.035Z,714.29
2016-04-13T08:21:56.332Z,714.39
2016-04-13T08:22:10.410Z,714.37
2016-04-13T08:22:24.707Z,714.51
2016-04-13T08:22:38.882Z,714.47
2016-04-13T08:22:52.710Z,714.42
2016-04-13T08:23:20.788Z,714.3
2016-04-13T08:23:35.304Z,714.44
2016-04-13T08:24:17.557Z,714.33
2016-04-13T08:24:31.853Z,714.49
2016-04-13T08:24:45.919Z,714.21
2016-04-13T08:25:00.138Z,714.33
2016-04-13T08:25:14.200Z,714.27
2016-04-13T08:25:28.466Z,714.24
2016-04-13T08:25:42.390Z,714.34
2016-04-13T08:25:56.577Z,714.33
2016-04-13T08:26:10.374Z,714.42
2016-04-13T08:26:24.249Z,714.27
2016-04-13T08:26:38.252Z,714.43
2016-04-13T08:26:52.768Z,714.4
2016-04-13T08:27:06.893Z,714.34
2016-04-13T08:27:20.924Z,714.38
2016-04-13T08:27:35.096Z,714.36
2016-04-13T08:27:52.410Z,714.34
2016-04-13T08:28:06.879Z,714.47
2016-04-13T08:28:21.020Z,714.55
2016-04-13T08:28:35.301Z,714.59
2016-04-13T08:28:49.257Z,714.39
2016-04-13T08:29:03.320Z,714.51
2016-04-13T08:29:17.085Z,714.37
2016-04-13T08:29:31.023Z,714.35
2016-04-13T08:29:45.588Z,714.38
2016-04-13T08:29:59.869Z,714.42
2016-04-13T08:30:13.885Z,714.55
2016-04-13T08:30:27.369Z,714.48
2016-04-13T08:30:41.809Z,714.31
2016-04-13T08:30:55.809Z,714.42
2016-04-13T08:31:09.950Z,714.23
2016-04-13T08:31:24.075Z,714.44
2016-04-13T08:31:37.437Z,714.32
2016-04-13T08:31:51.984Z,714.35
2016-04-13T08:32:06.359Z,714.44
2016-04-13T08:32:20.515Z,714.45
2016-04-13T08:32:34.531Z,714.45
2016-04-13T08:32:49.283Z,714.46
2016-04-13T08:33:03.408Z,714.48
2016-04-13T08:33:17.345Z,714.52
2016-04-13T08:33:31.298Z,714.5
2016-04-13T08:33:45.411Z,714.54
2016-04-13T08:33:59.598Z,714.45
2016-04-13T08:34:13.536Z,714.47
2016-04-13T08:34:27.473Z,714.36
2016-04-13T08:34:41.804Z,714.53
2016-04-13T08:34:55.945Z,714.45
2016-04-13T08:35:13.023Z,714.55
2016-04-13T08:35:27.336Z,714.49
2016-04-13T08:35:40.822Z,714.42
2016-04-13T08:35:55.197Z,714.48
2016-04-13T08:36:09.416Z,714.56
2016-04-13T08:36:26.572Z,714.4
2016-04-13T08:36:40.982Z,714.4
2016-04-13T08:36:55.107Z,714.51
2016-04-13T08:37:09.732Z,714.38
2016-04-13T08:37:24.795Z,714.52
2016-04-13T08:37:38.672Z,714.54
2016-04-13T08:37:52.828Z,714.47
2016-04-13T08:38:07.250Z,714.43
2016-04-13T08:38:21.453Z,714.37
2016-04-13T08:38:35.656Z,714.31
2016-04-13T08:39:19.018Z,714.38
2016-04-13T08:39:33.347Z,714.59
2016-04-13T08:39:47.614Z,714.61
2016-04-13T08:40:01.739Z,714.71
2016-04-13T08:40:43.867Z,714.6
2016-04-13T08:41:01.086Z,714.29
2016-04-13T08:41:15.148Z,714.45
2016-04-13T08:41:29.227Z,714.61
2016-04-13T08:41:43.214Z,714.59
2016-04-13T08:42:14.511Z,714.62
2016-04-13T08:42:28.620Z,714.53
2016-04-13T08:42:42.622Z,714.39
2016-04-13T08:42:56.794Z,714.37
2016-04-13T08:43:10.935Z,714.32
2016-04-13T08:43:25.091Z,714.44
2016-04-13T08:43:39.344Z,714.49
2016-04-13T08:43:53.485Z,714.62
2016-04-13T08:44:07.953Z,714.5
2016-04-13T08:44:22.094Z,714.7
2016-04-13T08:44:36.250Z,714.58
2016-04-13T08:44:50.408Z,714.61
2016-04-13T08:45:04.158Z,714.45
2016-04-13T08:45:18.596Z,714.41
2016-04-13T08:45:32.737Z,714.45
2016-04-13T08:45:46.693Z,714.3
2016-04-13T08:46:00.849Z,714.4
2016-04-13T08:46:18.458Z,714.63
2016-04-13T08:46:32.615Z,714.5
2016-04-13T08:46:46.852Z,714.51
2016-04-13T08:47:00.961Z,714.61
2016-04-13T08:47:15.071Z,714.48
2016-04-13T08:47:29.508Z,714.57
2016-04-13T08:47:46.621Z,714.59
2016-04-13T08:48:00.761Z,714.5
2016-04-13T08:48:13.808Z,714.56
2016-04-13T08:48:41.999Z,714.57
2016-04-13T08:48:56.295Z,714.52
2016-04-13T08:49:10.624Z,714.39
2016-04-13T08:49:24.702Z,714.49
2016-04-13T08:49:38.658Z,714.56
2016-04-13T08:49:52.783Z,714.63
2016-04-13T08:50:06.798Z,714.58
2016-04-13T08:50:21.033Z,714.57
2016-04-13T08:50:35.298Z,714.57
2016-04-13T08:50:49.988Z,714.42
2016-04-13T08:51:03.863Z,714.56
2016-04-13T08:51:18.082Z,714.52
2016-04-13T08:51:31.972Z,714.68
2016-04-13T08:51:46.303Z,714.63
2016-04-13T08:52:00.741Z,714.63
2016-04-13T08:52:14.600Z,714.68
2016-04-13T08:52:28.850Z,714.76
2016-04-13T08:52:43.415Z,714.7
2016-04-13T08:52:57.368Z,714.66
2016-04-13T08:53:10.134Z,714.67
2016-04-13T08:53:24.415Z,714.69
2016-04-13T08:53:38.683Z,714.68
2016-04-13T08:53:52.558Z,714.76
2016-04-13T08:54:06.887Z,714.79
2016-04-13T08:54:20.746Z,714.73
2016-04-13T08:54:34.715Z,714.68
2016-04-13T08:55:16.968Z,714.69
2016-04-13T08:55:31.046Z,714.75
2016-04-13T08:55:45.002Z,714.64
2016-04-13T08:55:59.002Z,714.65
2016-04-13T08:56:13.252Z,714.82
2016-04-13T08:56:27.111Z,714.95
2016-04-13T08:56:41.192Z,714.95
2016-04-13T08:56:55.552Z,715.02
2016-04-13T08:57:09.646Z,714.91
2016-04-13T08:57:23.661Z,714.92
2016-04-13T08:57:38.054Z,715.13
2016-04-13T08:57:56.273Z,715.17
2016-04-13T08:58:10.507Z,715.03
2016-04-13T08:58:24.632Z,715.31
2016-04-13T08:58:38.697Z,715.34
2016-04-13T08:58:52.635Z,715.47
2016-04-13T08:59:06.463Z,715.35
2016-04-13T08:59:21.729Z,715.41
2016-04-13T08:59:35.760Z,715.61
2016-04-13T08:59:50.043Z,715.59
2016-04-13T09:00:04.153Z,715.51
2016-04-13T09:00:18.621Z,715.65
2016-04-13T09:00:32.340Z,715.55
2016-04-13T09:00:46.390Z,715.93
2016-04-13T09:01:00.921Z,715.84
2016-04-13T09:01:28.812Z,715.62
2016-04-13T09:01:42.752Z,715.86
2016-04-13T09:01:56.643Z,715.6
2016-04-13T09:02:10.768Z,715.68
2016-04-13T09:02:24.924Z,715.73
2016-04-13T09:02:39.129Z,715.89
2016-04-13T09:02:53.145Z,715.82
2016-04-13T09:03:07.270Z,715.82
2016-04-13T09:03:21.254Z,715.55
2016-04-13T09:03:35.161Z,715.59
2016-04-13T09:03:49.617Z,715.5
2016-04-13T09:04:07.179Z,715.09
2016-04-13T09:04:21.304Z,714.99
2016-04-13T09:04:38.728Z,714.83
2016-04-13T09:04:58.962Z,714.82
2016-04-13T09:05:12.931Z,714.78
2016-04-13T09:05:27.322Z,714.78
2016-04-13T09:05:41.465Z,714.79
2016-04-13T09:05:55.544Z,714.98
2016-04-13T09:06:09.950Z,715.12
2016-04-13T09:06:52.218Z,715.35
2016-04-13T09:07:09.515Z,715.16
2016-04-13T09:07:23.843Z,715.09
2016-04-13T09:07:37.831Z,715.27
2016-04-13T09:07:52.346Z,715.61
2016-04-13T09:08:06.456Z,715.42
2016-04-13T09:08:20.378Z,715.57
2016-04-13T09:08:34.518Z,716.03
2016-04-13T09:08:48.583Z,715.74
2016-04-13T09:09:02.489Z,715.65
2016-04-13T09:09:16.661Z,715.3
2016-04-13T09:09:30.630Z,715.7
2016-04-13T09:09:45.055Z,715.85
2016-04-13T09:09:59.086Z,715.25
2016-04-13T09:10:16.570Z,714.96
2016-04-13T09:10:33.992Z,714.95
2016-04-13T09:10:48.058Z,714.94
2016-04-13T09:11:02.339Z,714.96
2016-04-13T09:11:16.386Z,714.85
2016-04-13T09:11:30.276Z,714.75
2016-04-13T09:11:44.169Z,714.83
2016-04-13T09:11:58.591Z,714.8
2016-04-13T09:12:12.638Z,714.8
2016-04-13T09:12:27.325Z,714.83
2016-04-13T09:12:41.844Z,714.88
2016-04-13T09:12:55.906Z,714.72
2016-04-13T09:13:10.031Z,714.94
2016-04-13T09:13:38.159Z,714.93
2016-04-13T09:13:52.394Z,714.95
2016-04-13T09:14:06.581Z,714.94
2016-04-13T09:14:20.597Z,714.91
2016-04-13T09:14:34.925Z,715.1
2016-04-13T09:14:48.865Z,715.29
2016-04-13T09:15:06.084Z,715.64
2016-04-13T09:15:23.647Z,716.13
2016-04-13T09:15:37.071Z,716.96
2016-04-13T09:15:51.430Z,718.13
2016-04-13T09:16:05.555Z,720.06
2016-04-13T09:16:19.758Z,722.5
2016-04-13T09:16:33.711Z,725.32
2016-04-13T09:16:47.792Z,728.57
2016-04-13T09:17:02.261Z,731.4
2016-04-13T09:17:16.745Z,733.82
2016-04-13T09:17:32.980Z,736.33
2016-04-13T09:17:47.060Z,738.1
2016-04-13T09:18:01.013Z,739.44
2016-04-13T09:18:14.904Z,740.25
2016-04-13T09:18:28.872Z,740.83
2016-04-13T09:18:42.922Z,740.93
2016-04-13T09:18:57.110Z,741.13
2016-04-13T09:19:11.079Z,741.41
2016-04-13T09:19:24.969Z,741.47
2016-04-13T09:19:39.097Z,740.85
2016-04-13T09:19:52.863Z,740.14
2016-04-13T09:20:07.207Z,740.12
2016-04-13T09:20:24.285Z,740.61
2016-04-13T09:20:38.428Z,741.17
2016-04-13T09:20:52.756Z,740.71
2016-04-13T09:21:06.788Z,740.07
2016-04-13T09:21:35.225Z,739.06
2016-04-13T09:21:49.494Z,738.98
2016-04-13T09:22:32.322Z,738.42
2016-04-13T09:22:46.808Z,738.01
2016-04-13T09:23:00.730Z,737.85
2016-04-13T09:23:26.808Z,737.68
2016-04-13T09:23:40.858Z,737.18
2016-04-13T09:23:55.280Z,736.98
2016-04-13T09:24:09.577Z,736.51
2016-04-13T09:24:24.061Z,736.45
2016-04-13T09:24:41.720Z,736.6
2016-04-13T09:24:55.829Z,736.78
2016-04-13T09:25:23.845Z,736.37
2016-04-13T09:25:37.769Z,736.34
2016-04-13T09:26:05.754Z,736.44
2016-04-13T09:26:48.522Z,736.08
2016-04-13T09:27:02.710Z,735.97
2016-04-13T09:27:17.054Z,735.95
2016-04-13T09:27:31.413Z,735.84
2016-04-13T09:27:59.666Z,736.25
2016-04-13T09:28:14.463Z,735.91
2016-04-13T09:28:28.432Z,735.51
2016-04-13T09:28:42.482Z,735.18
2016-04-13T09:28:56.747Z,735.1
2016-04-13T09:29:10.997Z,735.1
2016-04-13T09:29:25.372Z,734.85
2016-04-13T09:29:39.437Z,734.23
2016-04-13T09:29:53.468Z,734.01
2016-04-13T09:30:07.671Z,734.33
2016-04-13T09:30:21.655Z,734.33
2016-04-13T09:31:03.596Z,733.65
2016-04-13T09:31:17.596Z,733.4
2016-04-13T09:31:31.643Z,733.15
2016-04-13T09:31:45.801Z,733.44
2016-04-13T09:31:59.942Z,733.3
2016-04-13T09:32:13.864Z,733.52
2016-04-13T09:32:28.098Z,733.42
2016-04-13T09:32:42.226Z,733.18
2016-04-13T09:32:56.257Z,732.89
2016-04-13T09:33:10.132Z,732.53
2016-04-13T09:33:53.369Z,732.28
2016-04-13T09:34:07.290Z,732.15
2016-04-13T09:34:21.369Z,732.19
2016-04-13T09:34:35.853Z,732.48
2016-04-13T09:34:50.590Z,732.54
2016-04-13T09:35:04.590Z,732.24
2016-04-13T09:35:19.075Z,731.78
2016-04-13T09:35:33.231Z,731.61
2016-04-13T09:35:47.531Z,731.19
2016-04-13T09:36:00.796Z,730.89
2016-04-13T09:36:14.906Z,730.82
2016-04-13T09:36:28.562Z,730.68
2016-04-13T09:36:42.533Z,730.59
2016-04-13T09:37:10.658Z,731.17
2016-04-13T09:37:25.080Z,731.16
2016-04-13T09:37:39.881Z,731.21
2016-04-13T09:37:53.365Z,731.39
2016-04-13T09:38:07.459Z,731.59
2016-04-13T09:38:21.381Z,731.16
2016-04-13T09:38:35.381Z,730.68
2016-04-13T09:38:49.570Z,730.67
2016-04-13T09:39:17.789Z,730.42
2016-04-13T09:39:31.726Z,730.06
2016-04-13T09:39:45.745Z,729.98
2016-04-13T09:39:59.636Z,729.92
2016-04-13T09:40:13.714Z,729.66
2016-04-13T09:40:27.761Z,729.53
2016-04-13T09:40:41.903Z,729.45
2016-04-13T09:40:56.434Z,729.16
2016-04-13T09:41:10.794Z,729.16
2016-04-13T09:41:24.716Z,729.03
2016-04-13T09:41:38.750Z,729.22
2016-04-13T09:41:52.672Z,729.34
2016-04-13T09:42:06.922Z,729.55
2016-04-13T09:42:21.156Z,729.91
2016-04-13T09:42:35.203Z,729.95
2016-04-13T09:42:49.284Z,729.77
2016-04-13T09:43:03.347Z,730.13
2016-04-13T09:43:17.300Z,730.26
2016-04-13T09:43:31.331Z,730.14
2016-04-13T09:43:45.458Z,730.13
2016-04-13T09:43:59.411Z,729.72
2016-04-13T09:44:13.396Z,730.26
2016-04-13T09:44:27.739Z,730.07
2016-04-13T09:44:42.164Z,729.55
2016-04-13T09:44:56.352Z,729.44
2016-04-13T09:45:10.399Z,729.04